createdAt,value
2024-04-24T03:49:48.750Z,2.60
2024-04-24T03:52:15.540Z,2.70
2024-04-24T03:54:42.294Z,2.60
2024-04-24T03:57:09.217Z,2.70
2024-04-24T03:59:35.932Z,2.70
2024-04-24T04:02:02.752Z,2.70
2024-04-24T04:04:29.566Z,2.70
2024-04-24T04:06:56.288Z,2.70
2024-04-24T04:09:23.072Z,2.80
2024-04-24T04:11:49.802Z,2.80
2024-04-24T04:14:16.755Z,2.80
2024-04-24T04:16:43.535Z,2.80
2024-04-24T04:19:10.348Z,2.80
2024-04-24T04:21:37.049Z,2.90
2024-04-24T04:24:03.849Z,2.80
2024-04-24T04:26:30.569Z,2.80
2024-04-24T04:28:57.495Z,2.80
2024-04-24T04:31:24.184Z,2.80
2024-04-24T04:33:50.965Z,2.90
2024-04-24T04:36:17.855Z,2.80
2024-04-24T04:38:44.517Z,2.90
2024-04-24T04:41:11.285Z,2.90
2024-04-24T04:43:37.981Z,2.90
2024-04-24T04:46:04.706Z,2.90
2024-04-24T04:48:31.447Z,2.90
2024-04-24T04:51:00.712Z,2.90
2024-04-24T04:53:27.443Z,2.80
2024-04-24T04:55:54.239Z,2.80
2024-04-24T04:58:21.021Z,2.90
2024-04-24T05:00:47.746Z,2.90
2024-04-24T05:03:14.593Z,3.00
2024-04-24T05:05:41.527Z,3.10
2024-04-24T05:08:08.644Z,3.10
2024-04-24T05:10:35.388Z,3.10
2024-04-24T05:13:02.108Z,3.20
2024-04-24T05:15:28.808Z,3.20
2024-04-24T05:17:55.659Z,3.30
2024-04-24T05:20:22.535Z,3.40
2024-04-24T05:22:51.484Z,3.30
2024-04-24T05:25:18.769Z,3.40
2024-04-24T05:28:04.193Z,3.50
2024-04-24T05:30:31.891Z,3.60
2024-04-24T05:32:58.734Z,3.70
2024-04-24T05:35:25.615Z,3.80
2024-04-24T05:37:53.144Z,3.70
2024-04-24T05:40:19.936Z,3.80
2024-04-24T05:42:46.646Z,3.80
2024-04-24T05:45:13.451Z,3.80
2024-04-24T05:47:40.306Z,3.80
2024-04-24T05:50:07.212Z,3.90
2024-04-24T05:52:33.948Z,4.00
2024-04-24T05:55:01.178Z,4.10
2024-04-24T05:57:29.477Z,4.20
2024-04-24T05:59:56.482Z,4.30
2024-04-24T06:02:23.440Z,4.40
2024-04-24T06:04:51.931Z,4.30
2024-04-24T06:07:18.790Z,4.40
2024-04-24T06:09:45.746Z,4.50
2024-04-24T06:12:12.565Z,4.70
2024-04-24T06:14:39.359Z,4.80
2024-04-24T06:17:06.216Z,4.90
2024-04-24T06:19:32.927Z,5.00
2024-04-24T06:21:59.653Z,5.10
2024-04-24T06:24:26.379Z,5.30
2024-04-24T06:26:53.061Z,5.40
2024-04-24T06:29:19.944Z,5.60
2024-04-24T06:31:46.798Z,5.60
2024-04-24T06:34:13.506Z,5.70
2024-04-24T06:36:40.213Z,5.90
2024-04-24T06:39:06.913Z,6.10
2024-04-24T06:41:33.697Z,6.30
2024-04-24T06:44:00.469Z,6.40
2024-04-24T06:46:27.258Z,6.60
2024-04-24T06:48:54.194Z,6.60
2024-04-24T06:51:23.911Z,6.50
2024-04-24T06:53:50.945Z,6.60
2024-04-24T06:56:17.732Z,6.70
2024-04-24T06:58:44.536Z,6.80
2024-04-24T07:01:11.447Z,6.70
2024-04-24T07:03:38.302Z,6.60
2024-04-24T07:06:05.537Z,6.70
2024-04-24T07:08:35.691Z,6.70
2024-04-24T07:11:02.582Z,6.60
2024-04-24T07:13:29.361Z,6.70
2024-04-24T07:15:56.308Z,6.90
2024-04-24T07:18:23.118Z,7.20
2024-04-24T07:20:49.862Z,7.30
2024-04-24T07:23:17.807Z,7.40
2024-04-24T07:25:44.641Z,7.20
2024-04-24T07:28:11.336Z,6.80
2024-04-24T07:30:38.086Z,6.80
2024-04-24T07:33:05.679Z,6.80
2024-04-24T07:35:33.355Z,7.00
2024-04-24T07:38:00.250Z,7.10
2024-04-24T07:40:27.063Z,7.00
2024-04-24T07:42:53.846Z,7.00
2024-04-24T07:45:20.609Z,7.10
2024-04-24T07:47:47.605Z,7.20
2024-04-24T07:50:14.634Z,7.20
2024-04-24T07:52:41.468Z,7.20
2024-04-24T07:55:08.324Z,7.10
2024-04-24T07:57:35.108Z,7.50
2024-04-24T08:00:01.938Z,7.50
2024-04-24T08:02:29.676Z,7.50
2024-04-24T08:04:56.683Z,7.50
2024-04-24T08:07:23.557Z,7.50
2024-04-24T08:09:50.326Z,7.40
2024-04-24T08:12:17.259Z,7.50
2024-04-24T08:14:44.204Z,7.50
2024-04-24T08:17:10.966Z,7.60
2024-04-24T08:19:37.817Z,7.90
2024-04-24T08:22:04.646Z,8.20
2024-04-24T08:24:31.479Z,8.50
2024-04-24T08:26:58.269Z,8.70
2024-04-24T08:29:29.308Z,9.40
2024-04-24T08:31:58.010Z,9.60
2024-04-24T08:34:24.823Z,9.30
2024-04-24T08:36:51.665Z,8.90
2024-04-24T08:39:18.500Z,9.20
2024-04-24T08:41:45.866Z,9.90
2024-04-24T08:44:13.616Z,10.60
2024-04-24T08:46:43.222Z,10.50
2024-04-24T08:49:11.334Z,11.10
2024-04-24T08:51:42.259Z,11.40
2024-04-24T08:54:15.580Z,11.50
2024-04-24T08:56:48.748Z,11.70
2024-04-24T08:59:23.241Z,12.10
2024-04-24T09:02:07.842Z,12.70
2024-04-24T09:04:38.326Z,14.00
2024-04-24T09:07:05.078Z,14.50
2024-04-24T09:09:31.955Z,14.40
2024-04-24T09:12:01.317Z,14.50
2024-04-24T09:14:28.793Z,14.10
2024-04-24T09:16:55.895Z,13.60
2024-04-24T09:19:22.992Z,12.70
2024-04-24T09:21:49.919Z,11.40
2024-04-24T09:24:16.937Z,11.10
2024-04-24T09:26:43.801Z,10.90
2024-04-24T09:29:10.772Z,11.60
2024-04-24T09:31:38.627Z,11.30
2024-04-24T09:34:07.293Z,10.70
2024-04-24T09:36:38.318Z,10.20
2024-04-24T09:39:08.390Z,10.10
2024-04-24T09:41:41.148Z,9.30
2024-04-24T09:44:11.054Z,9.20
2024-04-24T09:46:38.048Z,8.80
2024-04-24T09:49:04.917Z,8.40
2024-04-24T09:51:32.301Z,8.40
2024-04-24T09:53:59.001Z,8.20
2024-04-24T09:56:29.184Z,8.10
2024-04-24T09:58:56.622Z,8.00
2024-04-24T10:01:24.457Z,8.30
2024-04-24T10:03:53.090Z,8.30
2024-04-24T10:06:21.397Z,8.30
2024-04-24T10:08:48.589Z,8.30
2024-04-24T10:11:15.617Z,8.30
2024-04-24T10:13:43.802Z,8.20
2024-04-24T10:16:10.946Z,8.20
2024-04-24T10:18:39.595Z,8.00
2024-04-24T10:21:08.896Z,8.20
2024-04-24T10:23:39.239Z,8.30
2024-04-24T10:26:08.392Z,8.30
2024-04-24T10:28:35.919Z,8.10
2024-04-24T10:31:03.680Z,8.00
2024-04-24T10:33:31.632Z,8.10
2024-04-24T10:35:58.573Z,8.00
2024-04-24T10:38:26.096Z,8.00
2024-04-24T10:40:52.984Z,8.00
2024-04-24T10:43:19.826Z,8.20
2024-04-24T10:45:46.541Z,8.10
2024-04-24T10:48:14.132Z,7.90
2024-04-24T10:50:41.800Z,7.70
2024-04-24T10:53:08.977Z,7.60
2024-04-24T10:55:35.827Z,7.40
2024-04-24T10:58:17.036Z,7.40
2024-04-24T11:00:43.766Z,7.50
2024-04-24T11:03:10.857Z,7.50
2024-04-24T11:05:41.235Z,7.40
2024-04-24T11:08:08.103Z,7.60
2024-04-24T11:10:35.034Z,7.60
2024-04-24T11:13:03.950Z,7.70
2024-04-24T11:15:31.102Z,7.70
2024-04-24T11:17:58.075Z,7.70
2024-04-24T11:20:25.748Z,7.60
2024-04-24T11:22:52.557Z,7.80
2024-04-24T11:25:19.369Z,7.80
2024-04-24T11:27:46.400Z,7.60
2024-04-24T11:30:14.224Z,7.60
2024-04-24T11:32:41.923Z,7.70
2024-04-24T11:35:09.248Z,7.60
2024-04-24T11:37:38.310Z,7.70
2024-04-24T11:40:05.722Z,7.80
2024-04-24T11:42:32.809Z,7.80
2024-04-24T11:44:59.967Z,7.90
2024-04-24T11:47:26.785Z,7.90
2024-04-24T11:49:54.073Z,7.70
2024-04-24T11:52:20.894Z,7.70
2024-04-24T11:54:51.093Z,7.60
2024-04-24T11:57:19.327Z,7.60
2024-04-24T11:59:48.000Z,7.60
2024-04-24T12:02:21.251Z,7.60
2024-04-24T12:04:48.725Z,7.60
2024-04-24T12:07:15.950Z,7.50
2024-04-24T12:09:42.850Z,7.50
2024-04-24T12:12:09.644Z,7.60
2024-04-24T12:14:39.612Z,7.70
2024-04-24T12:17:06.446Z,7.60
2024-04-24T12:19:33.217Z,7.60
2024-04-24T12:22:01.932Z,7.70
2024-04-24T12:24:29.597Z,7.70
2024-04-24T12:26:56.381Z,7.80
2024-04-24T12:29:23.132Z,7.80
2024-04-24T12:31:49.932Z,8.10
2024-04-24T12:34:19.652Z,8.20
2024-04-24T12:36:46.481Z,8.20
2024-04-24T12:39:13.176Z,8.10
2024-04-24T12:41:39.910Z,8.10
2024-04-24T12:44:06.833Z,8.20
2024-04-24T12:46:33.592Z,8.20
2024-04-24T12:49:02.672Z,8.50
2024-04-24T12:51:29.563Z,8.60
2024-04-24T12:53:56.291Z,8.60
2024-04-24T12:56:23.075Z,8.70
2024-04-24T12:58:52.908Z,9.00
2024-04-24T13:01:20.067Z,8.90
2024-04-24T13:03:47.112Z,8.60
2024-04-24T13:06:13.953Z,8.60
2024-04-24T13:08:40.648Z,8.50
2024-04-24T13:11:07.472Z,8.50
2024-04-24T13:13:34.246Z,8.80
2024-04-24T13:16:00.928Z,9.50
2024-04-24T13:18:29.653Z,10.20
2024-04-24T13:20:56.756Z,10.50
2024-04-24T13:23:23.710Z,11.20
2024-04-24T13:25:50.467Z,10.90
2024-04-24T13:28:17.418Z,10.40
2024-04-24T13:30:44.620Z,10.40
2024-04-24T13:33:11.379Z,9.70
2024-04-24T13:35:38.280Z,9.30
2024-04-24T13:38:05.188Z,9.60
2024-04-24T13:40:31.984Z,9.80
2024-04-24T13:42:58.704Z,10.10
2024-04-24T13:45:25.476Z,10.60
2024-04-24T13:47:52.527Z,10.30
2024-04-24T13:50:19.423Z,9.90
2024-04-24T13:52:46.395Z,9.90
2024-04-24T13:55:13.173Z,9.80
2024-04-24T13:57:39.986Z,9.90
2024-04-24T14:00:07.048Z,10.00
2024-04-24T14:02:35.943Z,9.60
2024-04-24T14:05:03.221Z,9.60
2024-04-24T14:07:29.951Z,9.40
2024-04-24T14:09:56.648Z,9.40
2024-04-24T14:12:23.377Z,9.20
2024-04-24T14:14:50.065Z,9.30
2024-04-24T14:17:16.878Z,9.00
2024-04-24T14:19:43.833Z,8.80
2024-04-24T14:22:10.559Z,8.60
2024-04-24T14:24:37.258Z,8.30
2024-04-24T14:27:03.958Z,8.20
2024-04-24T14:29:30.705Z,8.20
2024-04-24T14:31:57.497Z,8.30
2024-04-24T14:34:24.446Z,8.10
2024-04-24T14:36:57.789Z,8.20
2024-04-24T14:39:24.924Z,8.10
2024-04-24T14:41:51.675Z,8.10
2024-04-24T14:44:18.417Z,8.30
2024-04-24T14:46:45.110Z,8.60
2024-04-24T14:49:13.754Z,8.90
2024-04-24T14:51:40.560Z,9.20
2024-04-24T14:54:07.282Z,9.50
2024-04-24T14:56:34.027Z,9.90
2024-04-24T14:59:00.807Z,10.00
2024-04-24T15:01:28.642Z,9.80
2024-04-24T15:03:55.455Z,9.90
2024-04-24T15:06:22.205Z,9.80
2024-04-24T15:08:48.926Z,10.00
2024-04-24T15:11:15.786Z,10.30
2024-04-24T15:13:43.586Z,10.30
2024-04-24T15:16:10.559Z,10.60
2024-04-24T15:18:37.377Z,10.70
2024-04-24T15:21:04.325Z,10.70
2024-04-24T15:23:31.056Z,10.60
2024-04-24T15:25:57.772Z,10.70
2024-04-24T15:28:24.465Z,10.50
2024-04-24T15:30:51.189Z,10.30
2024-04-24T15:33:18.097Z,10.30
2024-04-24T15:35:44.905Z,10.30
2024-04-24T15:38:11.654Z,10.20
2024-04-24T15:40:38.387Z,10.30
2024-04-24T15:43:05.118Z,10.30
2024-04-24T15:45:34.044Z,9.90
2024-04-24T15:48:01.031Z,9.40
2024-04-24T15:50:27.966Z,9.30
2024-04-24T15:52:54.799Z,8.90
2024-04-24T15:55:22.382Z,8.70
2024-04-24T15:57:49.204Z,8.80
2024-04-24T16:00:16.053Z,8.60
2024-04-24T16:02:46.156Z,9.00
2024-04-24T16:05:15.046Z,9.20
2024-04-24T16:07:41.771Z,9.30
2024-04-24T16:10:08.516Z,9.00
2024-04-24T16:12:35.207Z,9.00
2024-04-24T16:15:02.007Z,8.80
2024-04-24T16:17:28.929Z,8.80
2024-04-24T16:19:58.121Z,8.70
2024-04-24T16:22:24.832Z,8.10
2024-04-24T16:24:51.586Z,7.60
2024-04-24T16:27:18.301Z,7.40
2024-04-24T16:29:48.456Z,7.70
2024-04-24T16:32:15.459Z,8.00
2024-04-24T16:34:45.409Z,8.10
2024-04-24T16:37:12.504Z,8.30
2024-04-24T16:39:40.715Z,8.40
2024-04-24T16:42:07.628Z,8.40
2024-04-24T16:44:34.616Z,8.30
2024-04-24T16:47:01.652Z,8.40
2024-04-24T16:49:30.451Z,8.30
2024-04-24T16:51:57.161Z,8.20
2024-04-24T16:54:23.972Z,8.30
2024-04-24T16:56:50.768Z,8.20
2024-04-24T16:59:17.483Z,8.20
2024-04-24T17:01:44.228Z,8.20
2024-04-24T17:04:12.830Z,8.00
2024-04-24T17:06:39.720Z,7.80
2024-04-24T17:09:06.548Z,7.60
2024-04-24T17:11:33.743Z,7.60
2024-04-24T17:14:02.299Z,7.70
2024-04-24T17:16:29.090Z,7.60
2024-04-24T17:18:56.136Z,7.50
2024-04-24T17:21:23.034Z,7.60
2024-04-24T17:23:49.887Z,7.30
2024-04-24T17:26:27.121Z,6.90
2024-04-24T17:29:01.842Z,6.70
2024-04-24T17:31:28.762Z,6.40
2024-04-24T17:33:55.505Z,6.50
2024-04-24T17:36:22.540Z,6.60
2024-04-24T17:38:49.296Z,6.50
2024-04-24T17:41:16.047Z,6.60
2024-04-24T17:43:42.867Z,6.70
2024-04-24T17:46:09.590Z,6.80
2024-04-24T17:48:36.538Z,6.70
2024-04-24T17:51:04.987Z,6.80
2024-04-24T17:53:31.924Z,6.70
2024-04-24T17:55:58.770Z,6.80
2024-04-24T17:58:26.989Z,7.00
2024-04-24T18:00:54.784Z,6.60
2024-04-24T18:03:22.231Z,6.60
2024-04-24T18:05:49.108Z,6.30
2024-04-24T18:08:18.849Z,6.30
2024-04-24T18:10:45.742Z,6.30
2024-04-24T18:13:12.976Z,6.10
2024-04-24T18:15:40.332Z,6.10
2024-04-24T18:18:07.395Z,6.00
2024-04-24T18:20:34.514Z,5.80
2024-04-24T18:23:01.410Z,5.80
2024-04-24T18:25:29.477Z,5.60
2024-04-24T18:27:56.254Z,5.80
2024-04-24T18:30:23.074Z,6.10
2024-04-24T18:32:50.068Z,6.20
2024-04-24T18:35:19.867Z,6.30
2024-04-24T18:37:46.604Z,6.30
2024-04-24T18:40:13.478Z,6.40
2024-04-24T18:42:40.878Z,6.40
2024-04-24T18:45:07.847Z,6.50
2024-04-24T18:47:38.540Z,6.30
2024-04-24T18:50:11.797Z,6.30
2024-04-24T18:52:38.761Z,6.30
2024-04-24T18:55:06.003Z,6.20
2024-04-24T18:57:32.772Z,6.20
2024-04-24T18:59:59.946Z,6.10
2024-04-24T19:02:26.788Z,6.10
2024-04-24T19:04:53.570Z,6.00
2024-04-24T19:07:20.325Z,5.90
2024-04-24T19:09:47.409Z,5.90
2024-04-24T19:12:14.154Z,5.70
2024-04-24T19:14:40.901Z,5.70
2024-04-24T19:17:07.668Z,5.60
2024-04-24T19:19:34.432Z,5.40
2024-04-24T19:22:01.195Z,5.20
2024-04-24T19:24:28.379Z,5.10
2024-04-24T19:26:55.114Z,5.00
2024-04-24T19:29:21.866Z,5.00
2024-04-24T19:31:48.627Z,5.10
2024-04-24T19:34:15.345Z,5.20
2024-04-24T19:36:42.073Z,5.10
2024-04-24T19:39:09.985Z,5.00
2024-04-24T19:41:36.772Z,4.70
2024-04-24T19:44:06.803Z,4.90
2024-04-24T19:46:34.817Z,5.00
2024-04-24T19:49:02.338Z,5.10
2024-04-24T19:51:29.178Z,5.00
2024-04-24T19:53:55.933Z,5.20
2024-04-24T19:56:22.736Z,5.10
2024-04-24T19:58:49.507Z,5.00
2024-04-24T20:01:16.629Z,4.90
2024-04-24T20:03:43.448Z,4.90
2024-04-24T20:06:11.081Z,5.00
2024-04-24T20:08:38.049Z,5.00
2024-04-24T20:11:05.568Z,4.90
2024-04-24T20:13:32.605Z,4.90
2024-04-24T20:16:03.741Z,4.70
2024-04-24T20:18:30.612Z,4.70
2024-04-24T20:20:57.396Z,4.70
2024-04-24T20:23:24.171Z,4.60
2024-04-24T20:25:51.006Z,4.40
2024-04-24T20:28:17.808Z,4.20
2024-04-24T20:30:44.593Z,4.30
2024-04-24T20:33:11.532Z,4.20
2024-04-24T20:35:38.473Z,4.20
2024-04-24T20:38:05.362Z,4.20
2024-04-24T20:40:32.220Z,4.20
2024-04-24T20:42:59.576Z,4.30
2024-04-24T20:45:26.339Z,4.30
2024-04-24T20:47:53.243Z,4.30
2024-04-24T20:50:20.061Z,4.40
2024-04-24T20:52:46.761Z,4.30
2024-04-24T20:55:13.507Z,4.40
2024-04-24T20:57:40.184Z,4.40
2024-04-24T21:00:07.275Z,4.40
2024-04-24T21:02:34.544Z,4.30
2024-04-24T21:05:01.485Z,4.20
2024-04-24T21:07:28.206Z,4.00
2024-04-24T21:09:56.154Z,4.00
2024-04-24T21:12:22.852Z,4.00
2024-04-24T21:14:49.883Z,3.90
2024-04-24T21:17:17.725Z,3.90
2024-04-24T21:19:44.474Z,3.90
2024-04-24T21:22:11.181Z,3.80
2024-04-24T21:24:37.886Z,3.70
2024-04-24T21:27:04.729Z,3.90
2024-04-24T21:29:31.632Z,3.80
2024-04-24T21:31:58.410Z,3.80
2024-04-24T21:34:25.114Z,3.70
2024-04-24T21:36:52.171Z,3.70
2024-04-24T21:39:18.985Z,3.70
2024-04-24T21:41:45.879Z,3.90
2024-04-24T21:44:12.598Z,3.90
2024-04-24T21:46:39.548Z,4.00
2024-04-24T21:49:06.315Z,3.90
2024-04-24T21:51:33.005Z,3.70
2024-04-24T21:53:59.780Z,3.60
2024-04-24T21:56:26.606Z,3.60
2024-04-24T21:58:53.602Z,3.60
2024-04-24T22:01:20.400Z,3.40
2024-04-24T22:03:47.301Z,3.40
2024-04-24T22:06:19.240Z,3.40
2024-04-24T22:08:47.198Z,3.30
2024-04-24T22:11:14.012Z,3.30
2024-04-24T22:13:40.779Z,3.20
2024-04-24T22:16:07.638Z,3.20
2024-04-24T22:18:35.921Z,3.20
2024-04-24T22:21:02.921Z,3.20
2024-04-24T22:23:30.146Z,3.10
2024-04-24T22:25:56.941Z,3.10
2024-04-24T22:28:23.803Z,3.10
2024-04-24T22:30:50.622Z,3.10
2024-04-24T22:33:17.479Z,3.10
2024-04-24T22:35:44.313Z,3.00
2024-04-24T22:38:12.125Z,2.90
2024-04-24T22:40:39.044Z,2.90
2024-04-24T22:43:05.793Z,3.00
2024-04-24T22:45:32.609Z,2.90
2024-04-24T22:47:59.518Z,3.00
2024-04-24T22:50:26.426Z,3.00
2024-04-24T22:52:53.183Z,3.10
2024-04-24T22:55:20.075Z,3.20
2024-04-24T22:57:47.129Z,3.20
